Austin, Texas
Current Conditions -  °F | °C
As of 4:51 PM on Wednesday 26 Nov 2014 (Local Time) from KATT Reporting Station
Clear Clear  
Wind Chill: 22°   Ceiling: Unl
Heat Index: 22°   Visibility: 10mi
Dew Point: -1°   Wind: 3mph
Humidity: 23%   Direction: NA
Pressure: 30.19"   Gusts: NA
Location:  30.27°N, 97.74°W
Report Text: KATT 262251Z AUTO VRB03KT 10SM CLR 22/M01 A3019 RMK AO2 SLP221 T02171006
Loading
Personal Weather Stations






























Interactive Weather Map New forecast layout! Learn more

10-Day Weather Forecast

Advertisements
Track Severe Weather on mobile